Time;durP1;ratioP1;P1;durP2;ratioP2;P2;SDS_P1;SDS_P2;PMS_P1;PMS_P2;Temp;Humidity;BMP_temperature;BMP_pressure;BME280_temperature;BME280_humidity;BME280_pressure;Samples;Min_cycle;Max_cycle;Signal;HPM_P1;HPM_P2
2021/04/01 00:01:20;;;;;;;3.50;2.50;;;22.70;45.30;;;;;;5122321;28;20488;-40
2021/04/01 00:03:51;;;;;;;3.27;2.73;;;22.70;44.80;;;;;;5122091;28;20445;-40
2021/04/01 00:06:21;;;;;;;3.90;2.73;;;22.70;47.00;;;;;;5113604;28;20487;-40
2021/04/01 00:08:51;;;;;;;3.03;2.63;;;22.60;45.60;;;;;;5123232;28;20457;-38
2021/04/01 00:11:22;;;;;;;3.33;2.60;;;22.60;46.90;;;;;;5122347;28;20471;-40
2021/04/01 00:13:55;;;;;;;3.90;2.73;;;22.40;46.40;;;;;;5123485;28;20438;-41
2021/04/01 00:16:25;;;;;;;4.60;2.97;;;22.30;44.40;;;;;;5122850;28;20443;-40
2021/04/01 00:18:56;;;;;;;3.23;2.93;;;22.30;44.60;;;;;;5121249;28;20536;-40
2021/04/01 00:21:26;;;;;;;3.60;2.80;;;22.20;45.60;;;;;;5121866;28;20484;-42
2021/04/01 00:23:56;;;;;;;7.80;2.70;;;22.00;45.10;;;;;;5122034;28;20548;-40
2021/04/01 00:26:26;;;;;;;4.73;2.73;;;22.00;45.60;;;;;;5122285;28;20877;-40
2021/04/01 00:28:56;;;;;;;3.53;2.47;;;21.90;46.20;;;;;;5122740;28;20443;-36
2021/04/01 00:31:26;;;;;;;4.27;3.47;;;21.90;45.70;;;;;;5121871;28;20492;-40
2021/04/01 00:33:58;;;;;;;4.43;2.80;;;21.90;46.10;;;;;;5122655;28;20451;-40
2021/04/01 00:36:28;;;;;;;3.80;2.80;;;21.90;44.70;;;;;;5120970;28;20534;-40
2021/04/01 00:38:58;;;;;;;3.93;3.17;;;21.80;45.70;;;;;;5121482;28;20460;-39
2021/04/01 00:41:28;;;;;;;7.70;4.03;;;21.80;45.90;;;;;;5121066;28;20466;-41
2021/04/01 00:44:04;;;;;;;9.20;6.93;;;21.70;47.00;;;;;;5122992;28;20534;-40
2021/04/01 00:46:34;;;;;;;9.10;7.87;;;21.70;46.50;;;;;;5122314;28;20460;-40
2021/04/01 00:49:05;;;;;;;7.40;6.10;;;21.60;46.80;;;;;;5122275;28;20934;-40
2021/04/01 00:51:35;;;;;;;4.70;4.17;;;21.60;46.80;;;;;;5121778;28;20447;-40
2021/04/01 00:54:05;;;;;;;3.83;3.53;;;21.50;47.60;;;;;;5123106;28;20458;-40
2021/04/01 00:56:36;;;;;;;3.60;3.30;;;21.40;46.50;;;;;;5121485;28;20458;-38
2021/04/01 00:59:08;;;;;;;5.00;3.63;;;21.20;46.10;;;;;;5125559;28;21218;-38
2021/04/01 01:01:45;;;;;;;7.20;3.50;;;21.20;46.70;;;;;;5126308;28;20925;-40
2021/04/01 01:04:16;;;;;;;4.63;2.70;;;21.00;46.90;;;;;;5126733;28;20522;-41
2021/04/01 01:06:47;;;;;;;4.73;3.20;;;21.00;47.90;;;;;;5126375;28;20451;-40
2021/04/01 01:09:17;;;;;;;3.50;3.20;;;20.90;49.40;;;;;;5126924;28;20473;-39
2021/04/01 01:11:47;;;;;;;3.47;2.60;;;20.90;48.70;;;;;;5125430;28;20417;-39
2021/04/01 01:14:17;;;;;;;2.60;2.40;;;20.80;47.20;;;;;;5126927;28;20775;-40
2021/04/01 01:16:48;;;;;;;4.70;3.10;;;20.70;47.40;;;;;;5126143;28;20470;-39
2021/04/01 01:19:19;;;;;;;4.40;2.77;;;20.70;48.70;;;;;;5110088;28;20453;-39
2021/04/01 01:21:49;;;;;;;4.50;3.10;;;20.50;48.20;;;;;;5125612;28;20479;-39
2021/04/01 01:24:20;;;;;;;4.07;2.70;;;20.40;48.60;;;;;;5126184;28;20472;-40
2021/04/01 01:26:50;;;;;;;3.30;3.00;;;20.30;48.70;;;;;;5125413;28;20523;-40
2021/04/01 01:29:20;;;;;;;7.10;3.10;;;20.20;49.00;;;;;;5126276;28;20449;-39
2021/04/01 01:31:51;;;;;;;4.73;3.03;;;20.10;50.00;;;;;;5125289;28;20536;-40
2021/04/01 01:34:21;;;;;;;4.07;3.07;;;20.10;49.80;;;;;;5125536;28;20472;-40
2021/04/01 01:36:52;;;;;;;3.80;3.40;;;20.00;48.80;;;;;;5125753;28;20455;-41
2021/04/01 01:39:23;;;;;;;6.30;3.33;;;20.00;50.00;;;;;;5125966;28;20452;-41
2021/04/01 01:41:53;;;;;;;5.20;3.50;;;19.90;49.40;;;;;;5124076;28;20477;-39
2021/04/01 01:44:24;;;;;;;7.77;3.30;;;19.80;49.80;;;;;;5126505;28;20480;-40
2021/04/01 01:46:54;;;;;;;5.37;3.50;;;19.80;50.00;;;;;;5119968;28;20454;-40
2021/04/01 01:49:24;;;;;;;4.37;2.77;;;19.60;50.00;;;;;;5126132;28;20428;-40
2021/04/01 01:51:54;;;;;;;5.03;3.57;;;19.50;50.20;;;;;;5125150;28;20516;-40
2021/04/01 01:54:25;;;;;;;4.13;3.73;;;19.40;50.00;;;;;;5126028;28;21056;-39
2021/04/01 01:56:55;;;;;;;3.13;2.83;;;19.30;50.10;;;;;;5125301;28;20937;-40
2021/04/01 01:59:25;;;;;;;6.13;3.17;;;19.30;51.00;;;;;;5115406;28;20801;-38
2021/04/01 02:01:57;;;;;;;6.13;3.40;;;19.10;51.30;;;;;;5112375;28;20454;-40
2021/04/01 02:04:27;;;;;;;5.70;3.17;;;19.00;51.60;;;;;;5125312;28;20965;-40
2021/04/01 02:06:57;;;;;;;4.10;3.70;;;18.80;51.80;;;;;;5125367;28;20454;-38
2021/04/01 02:09:28;;;;;;;7.23;4.43;;;18.80;52.50;;;;;;5110852;28;20431;-41
2021/04/01 02:11:58;;;;;;;5.70;4.23;;;18.70;51.60;;;;;;5124738;28;20445;-41
2021/04/01 02:14:29;;;;;;;3.83;3.53;;;18.60;52.50;;;;;;5125721;28;20450;-40
2021/04/01 02:16:59;;;;;;;6.13;4.00;;;18.50;52.80;;;;;;5124212;28;20522;-41
2021/04/01 02:19:29;;;;;;;5.40;3.70;;;18.30;52.60;;;;;;5125421;28;20427;-41
2021/04/01 02:21:59;;;;;;;5.23;3.30;;;18.20;54.80;;;;;;5124766;28;20431;-37
2021/04/01 02:24:30;;;;;;;4.00;3.43;;;18.10;54.80;;;;;;5125615;28;20453;-37
2021/04/01 02:27:00;;;;;;;9.50;4.27;;;17.90;54.30;;;;;;5112515;28;20520;-40
2021/04/01 02:29:30;;;;;;;5.50;4.23;;;17.80;56.20;;;;;;5125323;28;20495;-40
2021/04/01 02:32:00;;;;;;;3.50;3.20;;;17.70;55.90;;;;;;5124908;27;20428;-39
2021/04/01 02:34:30;;;;;;;3.67;3.37;;;17.60;54.30;;;;;;5124007;28;20903;-40
2021/04/01 02:37:00;;;;;;;7.33;3.90;;;17.50;54.20;;;;;;5123946;28;20460;-40
2021/04/01 02:39:31;;;;;;;5.23;4.03;;;17.40;56.40;;;;;;5125440;28;20413;-39
2021/04/01 02:42:01;;;;;;;5.20;3.63;;;17.30;57.20;;;;;;5124113;28;20453;-40
2021/04/01 02:44:31;;;;;;;4.77;3.27;;;17.10;56.80;;;;;;5125034;28;20473;-39
2021/04/01 02:47:01;;;;;;;4.97;3.13;;;17.00;55.20;;;;;;5124489;28;20435;-40
2021/04/01 02:49:31;;;;;;;6.73;3.50;;;17.00;55.10;;;;;;5124400;28;20427;-41
2021/04/01 02:52:01;;;;;;;5.00;4.47;;;16.90;55.10;;;;;;5124125;28;20448;-41
2021/04/01 02:54:33;;;;;;;4.93;3.60;;;16.90;55.70;;;;;;5124253;27;20410;-41
2021/04/01 02:57:13;;;;;;;4.70;3.57;;;16.80;55.40;;;;;;5123429;28;20449;-41
2021/04/01 02:59:43;;;;;;;3.67;3.03;;;16.80;55.40;;;;;;5113075;28;20575;-39
2021/04/01 03:02:13;;;;;;;3.93;2.93;;;16.70;54.80;;;;;;5124428;28;20553;-39
2021/04/01 03:04:43;;;;;;;6.00;3.37;;;16.60;55.80;;;;;;5124448;28;20423;-39
2021/04/01 03:07:14;;;;;;;6.03;3.60;;;16.60;55.90;;;;;;5107773;28;20408;-40
2021/04/01 03:09:45;;;;;;;5.60;3.57;;;16.50;56.70;;;;;;5125044;28;20433;-39
2021/04/01 03:12:15;;;;;;;7.70;3.40;;;16.40;56.30;;;;;;5123043;28;20480;-42
2021/04/01 03:14:45;;;;;;;5.60;3.90;;;16.30;58.70;;;;;;5124368;28;20492;-40
2021/04/01 03:17:16;;;;;;;4.97;3.60;;;16.10;60.80;;;;;;5123550;28;20483;-39
2021/04/01 03:19:46;;;;;;;3.60;3.03;;;15.90;61.30;;;;;;5124640;28;20469;-40
2021/04/01 03:22:16;;;;;;;4.17;3.37;;;15.80;61.90;;;;;;5122846;28;20647;-39
2021/04/01 03:24:47;;;;;;;4.67;3.73;;;15.70;60.20;;;;;;5124606;28;20758;-41
2021/04/01 03:27:17;;;;;;;6.73;3.97;;;15.60;65.90;;;;;;5121923;28;20463;-40
2021/04/01 03:30:03;;;;;;;6.37;4.17;;;15.40;65.40;;;;;;5123542;28;20467;-41
2021/04/01 03:32:33;;;;;;;4.07;3.67;;;15.30;66.00;;;;;;5122614;28;20456;-40
2021/04/01 03:35:05;;;;;;;5.93;4.03;;;15.20;63.50;;;;;;5123578;28;20455;-38
2021/04/01 03:37:35;;;;;;;4.57;4.20;;;15.30;65.10;;;;;;5120302;28;20447;-39
2021/04/01 03:40:08;;;;;;;6.00;3.90;;;15.20;64.70;;;;;;5123960;28;20472;-40
2021/04/01 03:42:39;;;;;;;5.73;3.60;;;15.00;67.20;;;;;;5121972;28;20465;-40
2021/04/01 03:45:11;;;;;;;4.13;2.93;;;14.90;69.70;;;;;;5123499;28;20454;-40
2021/04/01 03:47:41;;;;;;;4.73;3.00;;;14.70;69.20;;;;;;5116308;28;20531;-39
2021/04/01 03:50:14;;;;;;;5.23;3.40;;;14.60;68.80;;;;;;5123335;28;20455;-39
2021/04/01 03:52:44;;;;;;;3.73;3.27;;;14.60;67.50;;;;;;5122286;28;20443;-38
2021/04/01 03:55:28;;;;;;;3.60;3.27;;;14.60;71.10;;;;;;5117275;28;20443;-37
2021/04/01 03:58:02;;;;;;;4.70;3.60;;;14.50;67.00;;;;;;5122442;28;20454;-40
2021/04/01 04:00:34;;;;;;;4.07;3.47;;;14.40;67.90;;;;;;5112386;28;20485;-40
2021/04/01 04:03:13;;;;;;;4.00;3.60;;;14.40;69.40;;;;;;5122135;28;20541;-39
2021/04/01 04:05:52;;;;;;;5.10;3.83;;;14.30;71.80;;;;;;5122455;28;20450;-39
2021/04/01 04:08:41;;;;;;;4.00;3.50;;;14.20;69.30;;;;;;5122863;28;20434;-40
2021/04/01 04:11:23;;;;;;;5.20;4.10;;;14.00;72.60;;;;;;5119363;28;20534;-40
2021/04/01 04:13:55;;;;;;;3.50;3.23;;;14.10;70.20;;;;;;5120594;28;20442;-39
2021/04/01 04:16:26;;;;;;;4.93;3.70;;;14.00;70.00;;;;;;5122517;28;20515;-39
2021/04/01 04:18:56;;;;;;;8.83;3.70;;;14.10;69.80;;;;;;5122293;28;20468;-40
2021/04/01 04:21:27;;;;;;;7.23;3.60;;;14.00;70.70;;;;;;5122122;28;20481;-40
2021/04/01 04:23:57;;;;;;;3.90;2.47;;;13.90;71.60;;;;;;5122391;28;20469;-39
2021/04/01 04:26:28;;;;;;;4.23;3.13;;;13.90;69.50;;;;;;5121125;28;20466;-39
2021/04/01 04:28:58;;;;;;;7.00;3.40;;;14.00;65.20;;;;;;5122364;28;20485;-39
2021/04/01 04:31:28;;;;;;;4.40;2.63;;;14.10;64.70;;;;;;5119718;28;20589;-39
2021/04/01 04:33:58;;;;;;;4.83;3.50;;;14.20;62.00;;;;;;5121536;28;20449;-40
2021/04/01 04:36:28;;;;;;;3.53;3.20;;;14.40;61.70;;;;;;5122095;28;20450;-40
2021/04/01 04:38:58;;;;;;;11.50;3.50;;;14.40;60.60;;;;;;5122626;28;20925;-40
2021/04/01 04:41:29;;;;;;;7.20;3.37;;;14.50;60.40;;;;;;5121623;28;20581;-39
2021/04/01 04:44:00;;;;;;;4.13;3.40;;;14.50;60.40;;;;;;5121219;28;20478;-40
2021/04/01 04:46:30;;;;;;;4.27;3.20;;;14.60;59.60;;;;;;5121787;28;20449;-40
2021/04/01 04:49:00;;;;;;;5.77;3.20;;;14.60;59.60;;;;;;5122609;28;20464;-38
2021/04/01 04:51:30;;;;;;;7.87;3.83;;;14.60;59.70;;;;;;5122601;28;20480;-40
2021/04/01 04:54:02;;;;;;;4.83;3.13;;;14.50;60.10;;;;;;5122255;28;20458;-40
2021/04/01 04:56:34;;;;;;;4.90;3.30;;;14.40;63.40;;;;;;5119626;28;20719;-37
2021/04/01 04:59:09;;;;;;;4.97;3.40;;;14.20;62.60;;;;;;5123202;28;20507;-37
2021/04/01 05:04:43;;;;;;;5.93;4.30;;;14.10;63.80;;;;;;5099814;28;20511;-40
2021/04/01 05:07:14;;;;;;;5.00;3.63;;;14.00;63.70;;;;;;5121580;28;20918;-40
2021/04/01 05:09:44;;;;;;;3.90;3.30;;;14.00;63.80;;;;;;5122074;28;20458;-40
2021/04/01 05:12:15;;;;;;;4.50;3.90;;;13.90;64.60;;;;;;5120711;28;20538;-40
2021/04/01 05:14:45;;;;;;;4.20;3.17;;;13.90;64.50;;;;;;5119481;28;20479;-37
2021/04/01 05:17:17;;;;;;;3.93;3.30;;;13.90;63.60;;;;;;5121260;28;20445;-39
2021/04/01 05:19:49;;;;;;;5.53;3.80;;;14.00;63.80;;;;;;5115391;28;20484;-40
2021/04/01 05:22:22;;;;;;;3.13;2.80;;;14.00;62.80;;;;;;5120060;28;20457;-39
2021/04/01 05:24:52;;;;;;;3.33;2.80;;;14.00;63.10;;;;;;5121400;28;20443;-38
2021/04/01 05:27:25;;;;;;;8.27;3.33;;;14.00;62.40;;;;;;5121866;28;20448;-37
2021/04/01 05:29:58;;;;;;;3.23;2.57;;;14.00;63.50;;;;;;5114998;28;20449;-39
2021/04/01 05:32:30;;;;;;;6.07;2.77;;;14.00;63.10;;;;;;5122254;28;20526;-39
2021/04/01 05:35:01;;;;;;;2.90;2.53;;;14.00;62.10;;;;;;5120921;28;20454;-39
2021/04/01 05:37:31;;;;;;;3.53;3.13;;;14.00;61.80;;;;;;5120460;28;20458;-39
2021/04/01 05:40:01;;;;;;;5.93;2.70;;;14.10;61.30;;;;;;5120421;28;20434;-39
2021/04/01 05:42:36;;;;;;;4.37;2.63;;;14.10;61.50;;;;;;5112476;28;20542;-40
2021/04/01 05:45:12;;;;;;;6.10;2.90;;;14.00;61.70;;;;;;5124726;28;20464;-38
2021/04/01 05:47:47;;;;;;;4.13;2.97;;;14.00;61.80;;;;;;5125118;28;20445;-40
2021/04/01 05:50:34;;;;;;;3.77;2.83;;;14.00;60.10;;;;;;5125105;28;20456;-38
2021/04/01 06:02:03;;;;;;;6.60;2.93;;;13.60;67.60;;;;;;5125134;28;20497;-40
2021/04/01 06:04:39;;;;;;;3.17;2.83;;;13.40;67.90;;;;;;5118892;28;20449;-38
2021/04/01 06:07:19;;;;;;;6.40;2.90;;;13.40;69.10;;;;;;5124063;28;20912;-39
2021/04/01 06:09:52;;;;;;;5.03;2.93;;;13.30;69.90;;;;;;5125650;28;20434;-40
2021/04/01 06:12:23;;;;;;;3.80;3.50;;;13.20;69.40;;;;;;5125065;28;20465;-39
2021/04/01 06:15:00;;;;;;;6.40;3.53;;;13.10;68.60;;;;;;5124786;28;20628;-39
2021/04/01 06:17:34;;;;;;;5.83;3.83;;;13.00;72.10;;;;;;5123780;28;20452;-39
2021/04/01 06:20:07;;;;;;;4.57;4.00;;;12.90;71.70;;;;;;5121728;28;20445;-38
2021/04/01 06:22:41;;;;;;;3.40;3.10;;;12.80;76.10;;;;;;5125239;28;20453;-38
2021/04/01 06:25:13;;;;;;;3.80;3.40;;;12.60;78.80;;;;;;5124688;28;20449;-40
2021/04/01 06:27:51;;;;;;;5.50;3.97;;;12.50;79.10;;;;;;5124741;28;20434;-39
2021/04/01 06:30:25;;;;;;;5.17;4.20;;;12.50;73.50;;;;;;5124807;28;20446;-38
2021/04/01 06:33:04;;;;;;;7.37;4.43;;;12.40;75.00;;;;;;5125289;28;20445;-39
2021/04/01 06:35:38;;;;;;;4.30;3.90;;;12.50;75.60;;;;;;5123757;28;20452;-39
2021/04/01 06:38:23;;;;;;;4.70;3.70;;;12.30;78.20;;;;;;5123849;28;20966;-37
2021/04/01 06:40:56;;;;;;;7.57;3.50;;;12.30;80.30;;;;;;5125084;28;20485;-38
2021/04/01 06:43:36;;;;;;;4.93;3.80;;;12.20;80.20;;;;;;5123787;28;20474;-37
2021/04/01 06:46:09;;;;;;;5.77;3.43;;;12.10;80.70;;;;;;5122991;28;20525;-37
2021/04/01 06:51:49;;;;;;;5.03;3.90;;;11.90;90.10;;;;;;5124734;28;20472;-40
2021/04/01 06:54:27;;;;;;;5.50;3.60;;;11.70;90.00;;;;;;5124671;28;20789;-36
2021/04/01 06:57:23;;;;;;;5.77;4.17;;;11.60;91.40;;;;;;5120972;27;20468;-38
2021/04/01 07:00:21;;;;;;;4.87;4.00;;;11.60;93.20;;;;;;5117157;28;20465;-40
2021/04/01 07:03:12;;;;;;;7.73;4.27;;;11.50;94.20;;;;;;5120157;28;20448;-40
2021/04/01 07:05:52;;;;;;;5.20;4.13;;;11.40;95.20;;;;;;5124199;28;20449;-40
2021/04/01 07:08:39;;;;;;;5.27;4.00;;;11.30;95.80;;;;;;5124762;28;20464;-40
2021/04/01 07:11:11;;;;;;;6.33;4.03;;;11.10;95.10;;;;;;5124795;28;20456;-41
2021/04/01 07:13:47;;;;;;;6.72;3.90;;;11.10;97.30;;;;;;5123831;28;20445;-40
2021/04/01 07:16:28;;;;;;;3.97;3.60;;;11.10;97.80;;;;;;5107503;28;20195;-39
2021/04/01 07:19:26;;;;;;;4.37;3.43;;;11.00;98.90;;;;;;5123185;28;20214;-40
2021/04/01 07:44:49;;;;;;;6.05;5.05;;;10.40;99.90;;;;;;5123363;28;20223;-37
2021/04/01 07:47:22;;;;;;;6.97;5.65;;;10.30;99.90;;;;;;5123616;28;20266;-39
2021/04/01 07:49:55;;;;;;;5.90;5.40;;;10.30;99.90;;;;;;5123348;28;20191;-40
2021/04/01 07:52:29;;;;;;;7.68;5.45;;;10.20;99.90;;;;;;5124014;28;20216;-39
2021/04/01 07:55:12;;;;;;;9.40;5.72;;;10.20;99.90;;;;;;5123612;28;20209;-40
2021/04/01 08:00:42;;;;;;;6.25;5.70;;;10.10;99.90;;;;;;5123493;28;20928;-40
2021/04/01 08:06:24;;;;;;;7.80;5.40;;;10.10;99.90;;;;;;5120206;28;20286;-38
2021/04/01 08:08:58;;;;;;;7.38;5.70;;;10.10;99.90;;;;;;5122925;28;20455;-40
2021/04/01 08:11:31;;;;;;;7.28;5.72;;;10.00;99.90;;;;;;5123157;28;20202;-40
2021/04/01 08:14:08;;;;;;;5.70;5.20;;;10.00;99.90;;;;;;5123187;28;20190;-41
2021/04/01 08:16:44;;;;;;;7.35;4.60;;;9.90;99.90;;;;;;5122772;28;20205;-37
2021/04/01 08:19:16;;;;;;;9.32;4.82;;;9.80;99.90;;;;;;5121636;28;20235;-38
2021/04/01 08:22:05;;;;;;;7.65;4.85;;;9.70;99.90;;;;;;5117284;28;20266;-39
2021/04/01 08:25:02;;;;;;;6.45;5.30;;;9.70;99.90;;;;;;5123205;28;20231;-39
2021/04/01 08:28:11;;;;;;;7.72;4.88;;;9.60;99.90;;;;;;5107910;28;20200;-39
2021/04/01 08:34:19;;;;;;;6.38;4.90;;;9.40;99.90;;;;;;5120504;28;20200;-39
2021/04/01 08:37:10;;;;;;;6.72;4.88;;;9.30;99.90;;;;;;5118894;28;20283;-38
2021/04/01 08:40:03;;;;;;;5.70;4.88;;;9.30;99.90;;;;;;5117087;28;20276;-39
2021/04/01 08:43:33;;;;;;;6.13;5.53;;;9.30;99.90;;;;;;5122396;28;20284;-38
2021/04/01 08:46:51;;;;;;;6.97;6.10;;;9.20;99.90;;;;;;5114206;28;20698;-39
2021/04/01 08:49:37;;;;;;;6.50;5.50;;;9.10;99.90;;;;;;5119491;28;20230;-38
2021/04/01 08:52:35;;;;;;;6.45;5.50;;;9.10;99.90;;;;;;5122578;28;20260;-38
2021/04/01 08:55:12;;;;;;;6.43;5.82;;;9.10;99.90;;;;;;5117441;28;20217;-36
2021/04/01 08:57:57;;;;;;;10.23;5.95;;;9.00;99.90;;;;;;5121939;28;20231;-37
2021/04/01 09:00:31;;;;;;;10.02;6.25;;;8.90;99.90;;;;;;5122098;28;20222;-40
2021/04/01 09:03:02;;;;;;;7.65;5.70;;;8.80;99.90;;;;;;5122230;28;20196;-39
2021/04/01 09:05:32;;;;;;;8.10;6.60;;;8.80;99.90;;;;;;5123265;28;20214;-39
2021/04/01 09:08:06;;;;;;;7.55;6.47;;;8.70;99.90;;;;;;5123074;28;20273;-39
2021/04/01 09:10:49;;;;;;;7.25;5.82;;;8.70;99.90;;;;;;5122624;28;20558;-39
2021/04/01 09:13:28;;;;;;;7.03;6.32;;;8.70;99.90;;;;;;5122028;28;20235;-38
2021/04/01 09:16:03;;;;;;;6.93;6.22;;;8.60;99.90;;;;;;5117538;28;20259;-40
2021/04/01 09:18:34;;;;;;;9.20;6.75;;;8.60;99.90;;;;;;5122829;28;20281;-39
2021/04/01 09:21:05;;;;;;;8.88;5.85;;;8.60;99.90;;;;;;5126573;28;20222;-38
2021/04/01 09:23:37;;;;;;;7.55;6.75;;;8.50;99.90;;;;;;5127097;28;20189;-38
2021/04/01 09:26:09;;;;;;;8.60;6.18;;;8.50;99.90;;;;;;5125836;28;20203;-38
2021/04/01 09:28:41;;;;;;;10.25;7.03;;;8.40;99.90;;;;;;5126334;28;20280;-38
2021/04/01 09:31:13;;;;;;;7.00;6.30;;;8.30;99.90;;;;;;5126022;28;20215;-39
2021/04/01 09:33:44;;;;;;;7.53;6.38;;;8.20;99.90;;;;;;5125533;28;20287;-39
2021/04/01 09:36:18;;;;;;;7.18;6.05;;;8.20;99.90;;;;;;5125237;28;20531;-39
2021/04/01 09:38:52;;;;;;;8.30;6.38;;;8.20;99.90;;;;;;5127007;28;20188;-39
2021/04/01 09:41:31;;;;;;;9.15;5.82;;;8.10;99.90;;;;;;5125744;28;20218;-39
2021/04/01 09:44:06;;;;;;;5.82;5.25;;;8.10;99.90;;;;;;5126427;28;20232;-39
2021/04/01 09:46:38;;;;;;;6.85;6.15;;;8.00;99.90;;;;;;5124776;28;20211;-39
2021/04/01 09:49:12;;;;;;;7.90;6.07;;;8.00;99.90;;;;;;5126658;28;20269;-40
2021/04/01 09:51:52;;;;;;;8.32;6.97;;;8.10;99.90;;;;;;5125662;28;20196;-38
2021/04/01 09:54:27;;;;;;;7.45;6.65;;;8.20;99.90;;;;;;5123700;28;20229;-39
2021/04/01 09:56:59;;;;;;;8.18;7.05;;;8.10;99.90;;;;;;5125353;28;20287;-38
2021/04/01 09:59:46;;;;;;;11.02;7.07;;;8.10;99.90;;;;;;5127036;28;20199;-39
2021/04/01 10:02:29;;;;;;;10.27;7.65;;;8.00;99.90;;;;;;5126107;28;20681;-40
2021/04/01 10:05:04;;;;;;;8.43;7.63;;;8.10;99.90;;;;;;5111196;28;20266;-39
2021/04/01 10:07:37;;;;;;;10.20;7.30;;;8.00;99.90;;;;;;5125825;28;20206;-39
2021/04/01 10:10:08;;;;;;;8.70;7.13;;;7.90;99.90;;;;;;5126618;28;20304;-38
2021/04/01 10:12:43;;;;;;;10.38;7.38;;;7.90;99.90;;;;;;5125162;28;20256;-39
2021/04/01 10:15:13;;;;;;;10.73;6.80;;;7.80;99.90;;;;;;5125197;28;20251;-39
2021/04/01 10:17:45;;;;;;;9.05;6.53;;;7.90;99.90;;;;;;5124536;28;20192;-39
2021/04/01 10:20:16;;;;;;;8.68;6.43;;;7.70;99.90;;;;;;5125570;28;20203;-39
2021/04/01 10:22:46;;;;;;;9.38;6.88;;;7.80;99.90;;;;;;5125593;28;20223;-39
2021/04/01 10:25:23;;;;;;;6.70;6.00;;;7.80;99.90;;;;;;5125133;28;20192;-39
2021/04/01 10:27:59;;;;;;;9.75;6.88;;;7.80;99.90;;;;;;5124883;28;20671;-39
2021/04/01 10:30:31;;;;;;;7.93;6.90;;;7.70;99.90;;;;;;5125293;28;20203;-40
2021/04/01 10:33:08;;;;;;;6.57;5.97;;;7.70;99.90;;;;;;5125583;28;20196;-39
2021/04/01 10:35:38;;;;;;;7.00;6.30;;;7.70;99.90;;;;;;5116896;28;20188;-37
2021/04/01 10:38:11;;;;;;;8.18;6.53;;;7.70;99.90;;;;;;5124330;28;20226;-39
2021/04/01 10:40:41;;;;;;;8.05;6.35;;;7.70;99.90;;;;;;5125860;28;20253;-40
2021/04/01 10:43:13;;;;;;;12.95;7.30;;;7.60;99.90;;;;;;5124435;28;20219;-39
2021/04/01 10:45:45;;;;;;;7.95;6.07;;;7.50;99.90;;;;;;5125146;28;20200;-37
2021/04/01 10:48:30;;;;;;;9.70;7.13;;;7.50;99.90;;;;;;5123959;28;20196;-39
2021/04/01 10:51:03;;;;;;;9.27;7.20;;;7.50;99.90;;;;;;5119900;28;20184;-38
2021/04/01 10:53:34;;;;;;;7.50;6.70;;;7.50;99.90;;;;;;5124675;28;20639;-38
2021/04/01 10:56:06;;;;;;;7.50;6.30;;;7.50;99.90;;;;;;5124860;28;20309;-36
2021/04/01 10:58:47;;;;;;;7.55;6.80;;;7.40;99.90;;;;;;5123341;28;20200;-38
2021/04/01 11:01:20;;;;;;;8.25;6.95;;;7.40;99.90;;;;;;5124571;28;20320;-38
2021/04/01 11:03:54;;;;;;;7.55;6.55;;;7.50;99.90;;;;;;5125061;28;20196;-40
2021/04/01 11:06:29;;;;;;;9.15;7.20;;;7.50;99.90;;;;;;5124404;28;20240;-41
2021/04/01 11:09:01;;;;;;;7.45;6.75;;;7.50;99.90;;;;;;5124774;28;20222;-37
2021/04/01 11:11:46;;;;;;;9.90;7.85;;;7.50;99.90;;;;;;5123664;28;20196;-40
2021/04/01 11:14:18;;;;;;;8.85;7.95;;;7.50;99.90;;;;;;5123735;28;20192;-39
2021/04/01 11:16:51;;;;;;;11.38;7.30;;;7.50;99.90;;;;;;5123661;28;20295;-37
2021/04/01 11:19:24;;;;;;;11.68;7.82;;;7.50;99.90;;;;;;5124375;28;20253;-40
2021/04/01 11:21:56;;;;;;;8.18;7.10;;;7.50;99.90;;;;;;5124194;28;20249;-39
2021/04/01 11:24:32;;;;;;;9.27;7.75;;;7.40;99.90;;;;;;5123527;28;20200;-39
2021/04/01 11:27:10;;;;;;;12.07;7.57;;;7.50;99.90;;;;;;5123792;28;20271;-39
2021/04/01 11:29:50;;;;;;;8.00;7.10;;;7.40;99.90;;;;;;5124261;28;20195;-39
2021/04/01 11:32:22;;;;;;;9.32;8.20;;;7.40;99.90;;;;;;5124208;28;20196;-38
2021/04/01 11:34:53;;;;;;;10.50;7.65;;;7.50;99.90;;;;;;5124588;28;20196;-39
2021/04/01 11:37:25;;;;;;;7.97;6.78;;;7.40;99.90;;;;;;5117842;28;20215;-39
2021/04/01 11:40:00;;;;;;;9.65;7.93;;;7.40;99.90;;;;;;5122762;28;20221;-38
2021/04/01 11:42:30;;;;;;;8.02;6.90;;;7.40;99.90;;;;;;5116189;28;20215;-36
2021/04/01 11:45:04;;;;;;;9.25;6.50;;;7.30;99.90;;;;;;5123891;28;20204;-38
2021/04/01 11:47:36;;;;;;;10.50;8.10;;;7.30;99.90;;;;;;5123587;28;20200;-39
2021/04/01 11:50:08;;;;;;;7.95;7.25;;;7.30;99.90;;;;;;5123178;28;20307;-36
2021/04/01 11:52:40;;;;;;;8.55;6.53;;;7.30;99.90;;;;;;5123770;28;20298;-39
2021/04/01 11:55:11;;;;;;;10.73;8.63;;;7.20;99.90;;;;;;5119055;28;20263;-37
2021/04/01 11:57:45;;;;;;;9.20;7.25;;;7.20;99.90;;;;;;5123074;28;20257;-38
2021/04/01 12:00:19;;;;;;;8.40;7.40;;;7.20;99.90;;;;;;5123266;28;20196;-37
2021/04/01 12:02:55;;;;;;;9.27;7.35;;;7.20;99.90;;;;;;5122950;28;20229;-37
2021/04/01 12:05:27;;;;;;;8.43;7.28;;;7.10;99.90;;;;;;5122676;28;20199;-38
2021/04/01 12:07:57;;;;;;;9.02;7.45;;;7.10;99.90;;;;;;5123793;28;20199;-39
2021/04/01 12:10:28;;;;;;;8.75;7.55;;;7.10;99.90;;;;;;5122309;28;20229;-39
2021/04/01 12:12:58;;;;;;;9.13;7.53;;;7.00;99.90;;;;;;5121478;28;20200;-38
2021/04/01 12:15:32;;;;;;;9.18;7.18;;;7.00;99.90;;;;;;5122966;28;20221;-38
2021/04/01 12:18:04;;;;;;;9.73;7.90;;;7.00;99.90;;;;;;5122466;28;20203;-39
2021/04/01 12:20:34;;;;;;;10.60;7.28;;;7.00;99.90;;;;;;5123354;28;20212;-39
2021/04/01 12:23:10;;;;;;;12.38;7.47;;;7.00;99.90;;;;;;5122815;28;20552;-39
2021/04/01 12:25:41;;;;;;;8.52;7.03;;;7.00;99.90;;;;;;5123022;28;20238;-39
2021/04/01 12:28:20;;;;;;;9.15;7.22;;;7.00;99.90;;;;;;5122279;28;20206;-37
2021/04/01 12:30:52;;;;;;;7.57;6.55;;;7.00;99.90;;;;;;5120246;28;20260;-37
2021/04/01 12:33:23;;;;;;;9.93;7.47;;;6.80;99.90;;;;;;5123147;28;20204;-39
2021/04/01 12:35:55;;;;;;;8.93;7.25;;;6.80;99.90;;;;;;5122961;28;20251;-38
2021/04/01 12:38:34;;;;;;;8.75;7.95;;;6.80;99.90;;;;;;5122604;28;20196;-39
2021/04/01 12:41:06;;;;;;;9.93;7.57;;;6.80;99.90;;;;;;5121680;28;20196;-37
2021/04/01 12:46:38;;;;;;;11.63;7.45;;;6.80;99.90;;;;;;5121473;28;20230;-38
2021/04/01 12:49:10;;;;;;;11.20;7.70;;;6.80;99.90;;;;;;5123092;28;20191;-37
2021/04/01 12:51:44;;;;;;;10.45;7.43;;;6.90;99.90;;;;;;5122452;28;20204;-39
2021/04/01 12:54:16;;;;;;;12.80;9.05;;;6.80;99.90;;;;;;5125199;28;20222;-39
2021/04/01 12:56:49;;;;;;;11.10;6.97;;;6.90;99.90;;;;;;5126364;28;20207;-39
2021/04/01 12:59:21;;;;;;;11.57;7.90;;;6.80;99.90;;;;;;5126944;28;20252;-39
2021/04/01 13:01:53;;;;;;;13.43;7.70;;;6.90;99.90;;;;;;5127365;28;20280;-39
2021/04/01 13:04:25;;;;;;;13.70;8.65;;;7.00;99.90;;;;;;5127562;28;20225;-38
2021/04/01 13:07:02;;;;;;;14.13;8.77;;;7.00;99.90;;;;;;5126555;28;20207;-40
2021/04/01 13:09:40;;;;;;;9.95;7.97;;;6.90;99.90;;;;;;5124979;28;20200;-39
2021/04/01 13:12:13;;;;;;;10.82;7.63;;;6.80;99.90;;;;;;5126016;28;20203;-38
2021/04/01 13:14:43;;;;;;;7.95;7.15;;;6.90;99.90;;;;;;5126433;28;20267;-38
2021/04/01 13:17:15;;;;;;;11.43;8.00;;;6.90;99.90;;;;;;5126718;28;20264;-37
2021/04/01 13:19:45;;;;;;;13.77;8.30;;;6.90;99.90;;;;;;5123468;28;20558;-38
2021/04/01 13:22:21;;;;;;;8.57;7.78;;;6.90;99.90;;;;;;5126411;28;20216;-41
2021/04/01 13:27:46;;;;;;;15.27;8.38;;;6.90;99.90;;;;;;5114722;28;20200;-39
2021/04/01 13:30:19;;;;;;;12.05;8.02;;;6.80;99.90;;;;;;5109609;28;20196;-39
2021/04/01 13:32:56;;;;;;;10.90;7.18;;;6.80;99.90;;;;;;5125702;28;20195;-38
2021/04/01 13:35:34;;;;;;;10.07;7.93;;;6.70;99.90;;;;;;5125389;28;20256;-39
2021/04/01 13:38:07;;;;;;;8.85;8.05;;;6.80;99.90;;;;;;5124614;28;20256;-38
2021/04/01 13:40:41;;;;;;;10.55;7.40;;;6.70;99.90;;;;;;5125534;28;20233;-40
2021/04/01 13:43:14;;;;;;;8.43;7.53;;;6.70;99.90;;;;;;5125361;28;20239;-40
2021/04/01 13:45:44;;;;;;;9.90;7.78;;;6.70;99.90;;;;;;5124775;28;20547;-38
2021/04/01 13:48:21;;;;;;;11.55;7.90;;;6.70;99.90;;;;;;5126162;28;20203;-40
2021/04/01 13:50:55;;;;;;;8.63;7.30;;;6.70;99.90;;;;;;5125106;28;20306;-39
2021/04/01 13:53:57;;;;;;;19.02;8.88;;;6.70;99.90;;;;;;5125549;28;20196;-37
2021/04/01 13:56:31;;;;;;;10.77;8.70;;;6.80;99.90;;;;;;5123712;28;20207;-39
2021/04/01 14:10:24;;;;;;;9.10;8.02;;;6.70;99.90;;;;;;5123921;28;20315;-39
2021/04/01 14:12:55;;;;;;;10.32;8.25;;;6.80;99.90;;;;;;5125085;28;20211;-36
2021/04/01 14:15:25;;;;;;;9.27;8.20;;;6.90;99.90;;;;;;5125675;28;20200;-39
2021/04/01 14:17:56;;;;;;;13.63;9.25;;;7.00;99.90;;;;;;5125645;28;20203;-39
2021/04/01 14:20:27;;;;;;;11.70;8.48;;;7.10;99.90;;;;;;5125146;28;20207;-40
2021/04/01 14:22:58;;;;;;;9.80;8.15;;;7.10;99.90;;;;;;5125611;28;20356;-37
2021/04/01 14:25:34;;;;;;;11.73;7.78;;;7.30;99.90;;;;;;5125619;28;20207;-39
2021/04/01 14:28:05;;;;;;;10.13;8.75;;;7.40;99.90;;;;;;5123974;28;20203;-40
2021/04/01 14:30:36;;;;;;;11.73;8.98;;;7.40;99.90;;;;;;5125113;28;20226;-40